sensor_id;sensor_type;location;lat;lon;timestamp;temperature;humidity
5392;DHT22;2719;53.624;9.786;2023-11-21T00:01:43;9.80;99.90
5392;DHT22;2719;53.624;9.786;2023-11-21T00:04:10;9.80;99.90
5392;DHT22;2719;53.624;9.786;2023-11-21T00:06:38;9.90;99.90
5392;DHT22;2719;53.624;9.786;2023-11-21T00:09:06;9.80;99.90
5392;DHT22;2719;53.624;9.786;2023-11-21T00:11:33;9.60;99.90
5392;DHT22;2719;53.624;9.786;2023-11-21T00:14:00;9.60;99.90
5392;DHT22;2719;53.624;9.786;2023-11-21T00:16:27;9.60;99.90
5392;DHT22;2719;53.624;9.786;2023-11-21T00:18:54;9.60;99.90
5392;DHT22;2719;53.624;9.786;2023-11-21T00:21:20;9.50;99.90
5392;DHT22;2719;53.624;9.786;2023-11-21T00:23:48;9.40;99.90
5392;DHT22;2719;53.624;9.786;2023-11-21T00:26:15;9.40;99.90
5392;DHT22;2719;53.624;9.786;2023-11-21T00:28:42;9.40;99.90
5392;DHT22;2719;53.624;9.786;2023-11-21T00:31:08;9.40;99.90
5392;DHT22;2719;53.624;9.786;2023-11-21T00:33:34;9.40;99.90
5392;DHT22;2719;53.624;9.786;2023-11-21T00:36:00;9.40;99.90
5392;DHT22;2719;53.624;9.786;2023-11-21T00:38:27;9.30;99.90
5392;DHT22;2719;53.624;9.786;2023-11-21T00:40:55;9.30;99.90
5392;DHT22;2719;53.624;9.786;2023-11-21T00:43:22;9.30;99.90
5392;DHT22;2719;53.624;9.786;2023-11-21T00:45:49;9.40;99.90
5392;DHT22;2719;53.624;9.786;2023-11-21T00:48:16;9.30;99.90
5392;DHT22;2719;53.624;9.786;2023-11-21T00:50:44;9.20;99.90
5392;DHT22;2719;53.624;9.786;2023-11-21T00:53:10;9.10;99.90
5392;DHT22;2719;53.624;9.786;2023-11-21T00:55:37;9.10;99.90
5392;DHT22;2719;53.624;9.786;2023-11-21T00:58:06;9.00;99.90
5392;DHT22;2719;53.624;9.786;2023-11-21T01:00:32;9.10;99.90
5392;DHT22;2719;53.624;9.786;2023-11-21T01:02:59;9.10;99.90
5392;DHT22;2719;53.624;9.786;2023-11-21T01:05:26;9.00;99.90
5392;DHT22;2719;53.624;9.786;2023-11-21T01:07:53;8.90;99.90
5392;DHT22;2719;53.624;9.786;2023-11-21T01:10:20;8.90;99.90
5392;DHT22;2719;53.624;9.786;2023-11-21T01:12:46;8.80;99.90
5392;DHT22;2719;53.624;9.786;2023-11-21T01:15:15;8.70;99.90
5392;DHT22;2719;53.624;9.786;2023-11-21T01:17:42;8.80;99.90
5392;DHT22;2719;53.624;9.786;2023-11-21T01:20:09;8.60;99.90
5392;DHT22;2719;53.624;9.786;2023-11-21T01:22:37;8.70;99.90
5392;DHT22;2719;53.624;9.786;2023-11-21T01:25:04;8.70;99.90
5392;DHT22;2719;53.624;9.786;2023-11-21T01:27:32;8.60;99.90
5392;DHT22;2719;53.624;9.786;2023-11-21T01:29:59;8.70;99.90
5392;DHT22;2719;53.624;9.786;2023-11-21T01:32:27;8.60;99.90
5392;DHT22;2719;53.624;9.786;2023-11-21T01:34:54;8.60;99.90
5392;DHT22;2719;53.624;9.786;2023-11-21T01:37:21;8.50;99.90
5392;DHT22;2719;53.624;9.786;2023-11-21T01:39:49;8.50;99.90
5392;DHT22;2719;53.624;9.786;2023-11-21T01:42:15;8.50;99.90
5392;DHT22;2719;53.624;9.786;2023-11-21T01:44:42;8.50;99.90
5392;DHT22;2719;53.624;9.786;2023-11-21T01:47:09;8.60;99.90
5392;DHT22;2719;53.624;9.786;2023-11-21T01:49:37;8.60;99.90
5392;DHT22;2719;53.624;9.786;2023-11-21T01:52:04;8.60;99.90
5392;DHT22;2719;53.624;9.786;2023-11-21T01:54:32;8.60;99.90
5392;DHT22;2719;53.624;9.786;2023-11-21T01:56:59;8.60;99.90
5392;DHT22;2719;53.624;9.786;2023-11-21T01:59:33;8.50;99.90
5392;DHT22;2719;53.624;9.786;2023-11-21T02:01:59;8.60;99.90
5392;DHT22;2719;53.624;9.786;2023-11-21T02:04:26;8.70;99.90
5392;DHT22;2719;53.624;9.786;2023-11-21T02:06:54;8.60;99.90
5392;DHT22;2719;53.624;9.786;2023-11-21T02:09:25;8.50;99.90
5392;DHT22;2719;53.624;9.786;2023-11-21T02:11:52;8.50;99.90
5392;DHT22;2719;53.624;9.786;2023-11-21T02:14:19;8.40;99.90
5392;DHT22;2719;53.624;9.786;2023-11-21T02:16:48;8.40;99.90
5392;DHT22;2719;53.624;9.786;2023-11-21T02:19:18;8.40;99.90
5392;DHT22;2719;53.624;9.786;2023-11-21T02:21:45;8.50;99.90
5392;DHT22;2719;53.624;9.786;2023-11-21T02:24:15;8.40;99.90
5392;DHT22;2719;53.624;9.786;2023-11-21T02:26:43;8.50;99.90
5392;DHT22;2719;53.624;9.786;2023-11-21T02:29:09;8.60;99.90
5392;DHT22;2719;53.624;9.786;2023-11-21T02:31:37;8.70;99.90
5392;DHT22;2719;53.624;9.786;2023-11-21T02:34:13;8.70;99.90
5392;DHT22;2719;53.624;9.786;2023-11-21T02:36:40;8.70;99.90
5392;DHT22;2719;53.624;9.786;2023-11-21T02:39:08;8.60;99.90
5392;DHT22;2719;53.624;9.786;2023-11-21T02:41:36;8.60;99.90
5392;DHT22;2719;53.624;9.786;2023-11-21T02:44:03;8.60;99.90
5392;DHT22;2719;53.624;9.786;2023-11-21T02:46:31;8.60;99.90
5392;DHT22;2719;53.624;9.786;2023-11-21T02:48:59;8.60;99.90
5392;DHT22;2719;53.624;9.786;2023-11-21T02:51:26;8.60;99.90
5392;DHT22;2719;53.624;9.786;2023-11-21T02:53:52;8.60;99.90
5392;DHT22;2719;53.624;9.786;2023-11-21T02:56:19;8.60;99.90
5392;DHT22;2719;53.624;9.786;2023-11-21T02:58:47;8.50;99.90
5392;DHT22;2719;53.624;9.786;2023-11-21T03:01:14;8.70;99.90
5392;DHT22;2719;53.624;9.786;2023-11-21T03:03:41;8.60;99.90
5392;DHT22;2719;53.624;9.786;2023-11-21T03:06:07;8.50;99.90
5392;DHT22;2719;53.624;9.786;2023-11-21T03:08:34;8.50;99.90
5392;DHT22;2719;53.624;9.786;2023-11-21T03:11:01;8.60;99.90
5392;DHT22;2719;53.624;9.786;2023-11-21T03:13:29;8.70;99.90
5392;DHT22;2719;53.624;9.786;2023-11-21T03:15:57;8.70;99.90
5392;DHT22;2719;53.624;9.786;2023-11-21T03:18:23;8.70;99.90
5392;DHT22;2719;53.624;9.786;2023-11-21T03:20:52;8.70;99.90
5392;DHT22;2719;53.624;9.786;2023-11-21T03:23:19;8.60;99.90
5392;DHT22;2719;53.624;9.786;2023-11-21T03:25:46;8.60;99.90
5392;DHT22;2719;53.624;9.786;2023-11-21T03:28:12;8.50;99.90
5392;DHT22;2719;53.624;9.786;2023-11-21T03:30:39;8.60;99.90
5392;DHT22;2719;53.624;9.786;2023-11-21T03:33:07;8.50;99.90
5392;DHT22;2719;53.624;9.786;2023-11-21T03:35:34;8.40;99.90
5392;DHT22;2719;53.624;9.786;2023-11-21T03:38:00;8.40;99.90
5392;DHT22;2719;53.624;9.786;2023-11-21T03:40:27;8.40;99.90
5392;DHT22;2719;53.624;9.786;2023-11-21T03:42:54;8.40;99.90
5392;DHT22;2719;53.624;9.786;2023-11-21T03:45:20;8.40;99.90
5392;DHT22;2719;53.624;9.786;2023-11-21T03:47:47;8.40;99.90
5392;DHT22;2719;53.624;9.786;2023-11-21T03:50:15;8.50;99.90
5392;DHT22;2719;53.624;9.786;2023-11-21T03:52:42;8.60;99.90
5392;DHT22;2719;53.624;9.786;2023-11-21T03:55:09;8.70;99.90
5392;DHT22;2719;53.624;9.786;2023-11-21T03:57:35;8.70;99.90
5392;DHT22;2719;53.624;9.786;2023-11-21T04:00:02;8.70;99.90
5392;DHT22;2719;53.624;9.786;2023-11-21T04:02:33;8.60;99.90
5392;DHT22;2719;53.624;9.786;2023-11-21T04:05:00;8.60;99.90
5392;DHT22;2719;53.624;9.786;2023-11-21T04:07:28;8.40;99.90
5392;DHT22;2719;53.624;9.786;2023-11-21T04:09:55;8.40;99.90
5392;DHT22;2719;53.624;9.786;2023-11-21T04:12:22;8.40;99.90
5392;DHT22;2719;53.624;9.786;2023-11-21T04:14:48;8.40;99.90
5392;DHT22;2719;53.624;9.786;2023-11-21T04:17:18;8.40;99.90
5392;DHT22;2719;53.624;9.786;2023-11-21T04:19:44;8.60;99.90
5392;DHT22;2719;53.624;9.786;2023-11-21T04:22:11;8.40;99.90
5392;DHT22;2719;53.624;9.786;2023-11-21T04:24:39;8.50;99.90
5392;DHT22;2719;53.624;9.786;2023-11-21T04:27:06;8.60;99.90
5392;DHT22;2719;53.624;9.786;2023-11-21T04:29:33;8.60;99.90
5392;DHT22;2719;53.624;9.786;2023-11-21T04:32:00;8.60;99.90
5392;DHT22;2719;53.624;9.786;2023-11-21T04:34:28;8.60;99.90
5392;DHT22;2719;53.624;9.786;2023-11-21T04:36:56;8.50;99.90
5392;DHT22;2719;53.624;9.786;2023-11-21T04:39:23;8.50;99.90
5392;DHT22;2719;53.624;9.786;2023-11-21T04:41:51;8.60;99.90
5392;DHT22;2719;53.624;9.786;2023-11-21T04:44:18;8.40;99.90
5392;DHT22;2719;53.624;9.786;2023-11-21T04:46:44;8.40;99.90
5392;DHT22;2719;53.624;9.786;2023-11-21T04:49:11;8.40;99.90
5392;DHT22;2719;53.624;9.786;2023-11-21T04:51:38;8.30;99.90
5392;DHT22;2719;53.624;9.786;2023-11-21T04:54:05;8.40;99.90
5392;DHT22;2719;53.624;9.786;2023-11-21T04:56:32;8.40;99.90
5392;DHT22;2719;53.624;9.786;2023-11-21T04:59:00;8.40;99.90
5392;DHT22;2719;53.624;9.786;2023-11-21T05:01:26;8.40;99.90
5392;DHT22;2719;53.624;9.786;2023-11-21T05:03:53;8.50;99.90
5392;DHT22;2719;53.624;9.786;2023-11-21T05:06:20;8.50;99.90
5392;DHT22;2719;53.624;9.786;2023-11-21T05:08:46;8.50;99.90
5392;DHT22;2719;53.624;9.786;2023-11-21T05:11:23;8.50;99.90
5392;DHT22;2719;53.624;9.786;2023-11-21T05:13:50;8.50;99.90
5392;DHT22;2719;53.624;9.786;2023-11-21T05:16:18;8.50;99.90
5392;DHT22;2719;53.624;9.786;2023-11-21T05:18:45;8.60;99.90
5392;DHT22;2719;53.624;9.786;2023-11-21T05:21:12;8.60;99.90
5392;DHT22;2719;53.624;9.786;2023-11-21T05:23:38;8.60;99.90
5392;DHT22;2719;53.624;9.786;2023-11-21T05:26:05;8.60;99.90
5392;DHT22;2719;53.624;9.786;2023-11-21T05:28:32;8.70;99.90
5392;DHT22;2719;53.624;9.786;2023-11-21T05:30:59;8.70;99.90
5392;DHT22;2719;53.624;9.786;2023-11-21T05:33:28;8.70;99.90
5392;DHT22;2719;53.624;9.786;2023-11-21T05:35:55;8.80;99.90
5392;DHT22;2719;53.624;9.786;2023-11-21T05:38:21;8.80;99.90
5392;DHT22;2719;53.624;9.786;2023-11-21T05:40:48;8.90;99.90
5392;DHT22;2719;53.624;9.786;2023-11-21T05:43:15;9.00;99.90
5392;DHT22;2719;53.624;9.786;2023-11-21T05:45:41;8.90;99.90
5392;DHT22;2719;53.624;9.786;2023-11-21T05:48:08;8.90;99.90
5392;DHT22;2719;53.624;9.786;2023-11-21T05:50:36;9.00;99.90
5392;DHT22;2719;53.624;9.786;2023-11-21T05:53:04;8.90;99.90
5392;DHT22;2719;53.624;9.786;2023-11-21T05:55:30;9.00;99.90
5392;DHT22;2719;53.624;9.786;2023-11-21T05:57:57;8.90;99.90
5392;DHT22;2719;53.624;9.786;2023-11-21T06:00:24;8.80;99.90
5392;DHT22;2719;53.624;9.786;2023-11-21T06:02:53;8.70;99.90
5392;DHT22;2719;53.624;9.786;2023-11-21T06:05:21;8.70;99.90
5392;DHT22;2719;53.624;9.786;2023-11-21T06:07:50;8.70;99.90
5392;DHT22;2719;53.624;9.786;2023-11-21T06:10:19;8.80;99.90
5392;DHT22;2719;53.624;9.786;2023-11-21T06:12:46;8.70;99.90
5392;DHT22;2719;53.624;9.786;2023-11-21T06:15:12;8.80;99.90
5392;DHT22;2719;53.624;9.786;2023-11-21T06:17:40;8.80;99.90
5392;DHT22;2719;53.624;9.786;2023-11-21T06:20:09;8.70;99.90
5392;DHT22;2719;53.624;9.786;2023-11-21T06:22:40;8.80;99.90
5392;DHT22;2719;53.624;9.786;2023-11-21T06:25:09;8.80;99.90
5392;DHT22;2719;53.624;9.786;2023-11-21T06:27:38;8.90;99.90
5392;DHT22;2719;53.624;9.786;2023-11-21T06:30:06;8.90;99.90
5392;DHT22;2719;53.624;9.786;2023-11-21T06:32:34;8.80;99.90
5392;DHT22;2719;53.624;9.786;2023-11-21T06:35:01;8.90;99.90
5392;DHT22;2719;53.624;9.786;2023-11-21T06:37:29;8.90;99.90
5392;DHT22;2719;53.624;9.786;2023-11-21T06:39:57;9.00;99.90
5392;DHT22;2719;53.624;9.786;2023-11-21T06:42:26;9.10;99.90
5392;DHT22;2719;53.624;9.786;2023-11-21T06:44:54;9.20;99.90
5392;DHT22;2719;53.624;9.786;2023-11-21T06:47:22;9.20;99.90
5392;DHT22;2719;53.624;9.786;2023-11-21T06:49:50;9.30;99.90
5392;DHT22;2719;53.624;9.786;2023-11-21T06:52:17;9.30;99.90
5392;DHT22;2719;53.624;9.786;2023-11-21T06:54:44;9.30;99.90
5392;DHT22;2719;53.624;9.786;2023-11-21T06:57:12;9.20;99.90
5392;DHT22;2719;53.624;9.786;2023-11-21T06:59:40;9.20;99.90
5392;DHT22;2719;53.624;9.786;2023-11-21T07:02:08;9.10;99.90
5392;DHT22;2719;53.624;9.786;2023-11-21T07:04:34;9.10;99.90
5392;DHT22;2719;53.624;9.786;2023-11-21T07:07:01;9.10;99.90
5392;DHT22;2719;53.624;9.786;2023-11-21T07:09:29;9.00;99.90
5392;DHT22;2719;53.624;9.786;2023-11-21T07:11:56;9.00;99.90
5392;DHT22;2719;53.624;9.786;2023-11-21T07:14:23;9.00;99.90
5392;DHT22;2719;53.624;9.786;2023-11-21T07:16:51;8.90;99.90
5392;DHT22;2719;53.624;9.786;2023-11-21T07:19:18;9.00;99.90
5392;DHT22;2719;53.624;9.786;2023-11-21T07:21:45;8.90;99.90
5392;DHT22;2719;53.624;9.786;2023-11-21T07:24:11;9.00;99.90
5392;DHT22;2719;53.624;9.786;2023-11-21T07:26:38;8.90;99.90
5392;DHT22;2719;53.624;9.786;2023-11-21T07:29:05;8.90;99.90
5392;DHT22;2719;53.624;9.786;2023-11-21T07:31:32;8.90;99.90
5392;DHT22;2719;53.624;9.786;2023-11-21T07:34:01;8.90;99.90
5392;DHT22;2719;53.624;9.786;2023-11-21T07:36:28;8.90;99.90
5392;DHT22;2719;53.624;9.786;2023-11-21T07:38:54;8.90;99.90
5392;DHT22;2719;53.624;9.786;2023-11-21T07:41:21;8.90;99.90
5392;DHT22;2719;53.624;9.786;2023-11-21T07:43:48;8.90;99.90
5392;DHT22;2719;53.624;9.786;2023-11-21T07:46:14;8.90;99.90
5392;DHT22;2719;53.624;9.786;2023-11-21T07:48:42;8.90;99.90
5392;DHT22;2719;53.624;9.786;2023-11-21T07:51:10;8.70;99.90
5392;DHT22;2719;53.624;9.786;2023-11-21T07:53:38;8.70;99.90
5392;DHT22;2719;53.624;9.786;2023-11-21T07:56:06;8.70;99.90
5392;DHT22;2719;53.624;9.786;2023-11-21T07:58:34;8.70;99.90
5392;DHT22;2719;53.624;9.786;2023-11-21T08:01:01;8.70;99.90
5392;DHT22;2719;53.624;9.786;2023-11-21T08:03:28;8.70;99.90
5392;DHT22;2719;53.624;9.786;2023-11-21T08:05:55;8.70;99.90
5392;DHT22;2719;53.624;9.786;2023-11-21T08:08:24;8.70;99.90
5392;DHT22;2719;53.624;9.786;2023-11-21T08:10:51;8.70;99.90
5392;DHT22;2719;53.624;9.786;2023-11-21T08:13:21;8.70;99.90
5392;DHT22;2719;53.624;9.786;2023-11-21T08:15:48;8.80;99.90
5392;DHT22;2719;53.624;9.786;2023-11-21T08:18:15;8.70;99.90
5392;DHT22;2719;53.624;9.786;2023-11-21T08:20:43;8.80;99.90
5392;DHT22;2719;53.624;9.786;2023-11-21T08:23:14;8.80;99.90
5392;DHT22;2719;53.624;9.786;2023-11-21T08:25:43;8.70;99.90
5392;DHT22;2719;53.624;9.786;2023-11-21T08:28:09;8.70;99.90
5392;DHT22;2719;53.624;9.786;2023-11-21T08:30:36;8.60;99.90
5392;DHT22;2719;53.624;9.786;2023-11-21T08:33:03;8.70;99.90
5392;DHT22;2719;53.624;9.786;2023-11-21T08:35:30;8.60;99.90
5392;DHT22;2719;53.624;9.786;2023-11-21T08:37:57;8.50;99.90
5392;DHT22;2719;53.624;9.786;2023-11-21T08:40:24;8.50;99.90
5392;DHT22;2719;53.624;9.786;2023-11-21T08:42:52;8.40;99.90
5392;DHT22;2719;53.624;9.786;2023-11-21T08:45:19;8.40;99.90
5392;DHT22;2719;53.624;9.786;2023-11-21T08:47:46;8.40;99.90
5392;DHT22;2719;53.624;9.786;2023-11-21T08:50:13;8.40;99.90
5392;DHT22;2719;53.624;9.786;2023-11-21T08:52:40;8.40;99.90
5392;DHT22;2719;53.624;9.786;2023-11-21T08:55:08;8.40;99.90
5392;DHT22;2719;53.624;9.786;2023-11-21T08:57:38;8.40;99.90
5392;DHT22;2719;53.624;9.786;2023-11-21T09:00:08;8.40;99.90
5392;DHT22;2719;53.624;9.786;2023-11-21T09:02:37;8.40;99.90
5392;DHT22;2719;53.624;9.786;2023-11-21T09:25:48;8.40;99.90
5392;DHT22;2719;53.624;9.786;2023-11-21T09:28:16;8.40;99.90
5392;DHT22;2719;53.624;9.786;2023-11-21T09:30:43;8.40;99.90
5392;DHT22;2719;53.624;9.786;2023-11-21T09:33:09;8.40;99.90
5392;DHT22;2719;53.624;9.786;2023-11-21T09:35:37;8.40;99.90
5392;DHT22;2719;53.624;9.786;2023-11-21T09:38:04;8.40;99.90
5392;DHT22;2719;53.624;9.786;2023-11-21T09:40:35;8.40;99.90
5392;DHT22;2719;53.624;9.786;2023-11-21T09:43:06;8.40;99.90
5392;DHT22;2719;53.624;9.786;2023-11-21T09:45:35;8.40;99.90
5392;DHT22;2719;53.624;9.786;2023-11-21T09:48:02;8.40;99.90
5392;DHT22;2719;53.624;9.786;2023-11-21T09:50:29;8.40;99.90
5392;DHT22;2719;53.624;9.786;2023-11-21T09:53:13;8.40;99.90
5392;DHT22;2719;53.624;9.786;2023-11-21T09:55:42;8.40;99.90
5392;DHT22;2719;53.624;9.786;2023-11-21T09:58:11;8.50;99.90
5392;DHT22;2719;53.624;9.786;2023-11-21T10:00:40;8.50;99.90
5392;DHT22;2719;53.624;9.786;2023-11-21T10:03:07;8.50;99.90
5392;DHT22;2719;53.624;9.786;2023-11-21T10:05:34;8.30;99.90
5392;DHT22;2719;53.624;9.786;2023-11-21T10:08:01;8.20;99.90
5392;DHT22;2719;53.624;9.786;2023-11-21T10:10:29;8.40;99.90
5392;DHT22;2719;53.624;9.786;2023-11-21T10:13:02;8.30;99.90
5392;DHT22;2719;53.624;9.786;2023-11-21T10:15:31;8.30;99.90
5392;DHT22;2719;53.624;9.786;2023-11-21T10:18:02;8.20;99.90
5392;DHT22;2719;53.624;9.786;2023-11-21T10:20:29;8.30;99.90
5392;DHT22;2719;53.624;9.786;2023-11-21T10:22:56;8.20;99.90
5392;DHT22;2719;53.624;9.786;2023-11-21T10:25:23;8.30;99.90
5392;DHT22;2719;53.624;9.786;2023-11-21T10:27:57;8.20;99.90
5392;DHT22;2719;53.624;9.786;2023-11-21T10:30:28;8.10;99.90
5392;DHT22;2719;53.624;9.786;2023-11-21T10:33:00;8.20;99.90
5392;DHT22;2719;53.624;9.786;2023-11-21T10:35:39;8.20;99.90
5392;DHT22;2719;53.624;9.786;2023-11-21T10:38:06;8.20;99.90
5392;DHT22;2719;53.624;9.786;2023-11-21T10:40:37;8.20;99.90
5392;DHT22;2719;53.624;9.786;2023-11-21T10:43:06;8.20;99.90
5392;DHT22;2719;53.624;9.786;2023-11-21T10:45:34;8.30;99.90
5392;DHT22;2719;53.624;9.786;2023-11-21T10:48:05;8.20;99.90
5392;DHT22;2719;53.624;9.786;2023-11-21T10:50:33;8.20;99.90
5392;DHT22;2719;53.624;9.786;2023-11-21T10:53:01;8.10;99.90
5392;DHT22;2719;53.624;9.786;2023-11-21T10:55:29;8.10;99.90
5392;DHT22;2719;53.624;9.786;2023-11-21T10:57:58;8.10;99.90
5392;DHT22;2719;53.624;9.786;2023-11-21T11:00:27;8.10;99.90
5392;DHT22;2719;53.624;9.786;2023-11-21T11:02:54;8.20;99.90
5392;DHT22;2719;53.624;9.786;2023-11-21T11:05:23;8.20;99.90
5392;DHT22;2719;53.624;9.786;2023-11-21T11:07:56;8.20;99.90
5392;DHT22;2719;53.624;9.786;2023-11-21T11:10:25;8.20;99.90
5392;DHT22;2719;53.624;9.786;2023-11-21T11:12:53;8.20;99.90
5392;DHT22;2719;53.624;9.786;2023-11-21T11:15:21;8.10;99.90
5392;DHT22;2719;53.624;9.786;2023-11-21T11:17:48;8.20;99.90
5392;DHT22;2719;53.624;9.786;2023-11-21T11:20:16;8.20;99.90
5392;DHT22;2719;53.624;9.786;2023-11-21T11:22:54;8.20;99.90
5392;DHT22;2719;53.624;9.786;2023-11-21T11:25:30;8.20;99.90
5392;DHT22;2719;53.624;9.786;2023-11-21T11:28:04;8.20;99.90
5392;DHT22;2719;53.624;9.786;2023-11-21T11:30:43;8.20;99.90
5392;DHT22;2719;53.624;9.786;2023-11-21T11:33:21;8.20;99.90
5392;DHT22;2719;53.624;9.786;2023-11-21T11:35:55;8.20;99.90
5392;DHT22;2719;53.624;9.786;2023-11-21T11:38:27;8.20;99.90
5392;DHT22;2719;53.624;9.786;2023-11-21T11:40:57;8.20;99.90
5392;DHT22;2719;53.624;9.786;2023-11-21T11:43:28;8.20;99.90
5392;DHT22;2719;53.624;9.786;2023-11-21T11:45:56;8.30;99.90
5392;DHT22;2719;53.624;9.786;2023-11-21T11:48:24;8.30;99.90
5392;DHT22;2719;53.624;9.786;2023-11-21T11:51:04;8.20;99.90
5392;DHT22;2719;53.624;9.786;2023-11-21T11:53:38;8.10;99.90
5392;DHT22;2719;53.624;9.786;2023-11-21T11:56:24;8.10;99.90
5392;DHT22;2719;53.624;9.786;2023-11-21T11:58:54;8.10;99.90
5392;DHT22;2719;53.624;9.786;2023-11-21T12:01:21;8.10;99.90
5392;DHT22;2719;53.624;9.786;2023-11-21T12:04:24;8.20;99.90
5392;DHT22;2719;53.624;9.786;2023-11-21T12:06:57;8.20;99.90
5392;DHT22;2719;53.624;9.786;2023-11-21T12:09:27;8.20;99.90
5392;DHT22;2719;53.624;9.786;2023-11-21T12:11:56;8.10;99.90
5392;DHT22;2719;53.624;9.786;2023-11-21T12:14:23;8.10;99.90
5392;DHT22;2719;53.624;9.786;2023-11-21T12:16:51;7.90;99.90
5392;DHT22;2719;53.624;9.786;2023-11-21T12:19:18;7.90;99.90
5392;DHT22;2719;53.624;9.786;2023-11-21T12:21:45;7.90;99.90
5392;DHT22;2719;53.624;9.786;2023-11-21T12:24:14;7.80;99.90
5392;DHT22;2719;53.624;9.786;2023-11-21T12:26:43;7.90;99.90
5392;DHT22;2719;53.624;9.786;2023-11-21T12:29:10;7.90;99.90
5392;DHT22;2719;53.624;9.786;2023-11-21T12:31:37;7.80;99.90
5392;DHT22;2719;53.624;9.786;2023-11-21T12:34:04;7.90;99.90
5392;DHT22;2719;53.624;9.786;2023-11-21T12:36:32;7.80;99.90
5392;DHT22;2719;53.624;9.786;2023-11-21T12:39:00;7.90;99.90
5392;DHT22;2719;53.624;9.786;2023-11-21T12:41:28;7.80;99.90
5392;DHT22;2719;53.624;9.786;2023-11-21T12:43:56;7.80;99.90
5392;DHT22;2719;53.624;9.786;2023-11-21T12:46:23;7.80;99.90
5392;DHT22;2719;53.624;9.786;2023-11-21T12:48:51;7.80;99.90
5392;DHT22;2719;53.624;9.786;2023-11-21T12:51:18;7.80;99.90
5392;DHT22;2719;53.624;9.786;2023-11-21T12:53:45;7.70;99.90
5392;DHT22;2719;53.624;9.786;2023-11-21T12:56:12;7.70;99.90
5392;DHT22;2719;53.624;9.786;2023-11-21T12:58:44;7.80;99.90
5392;DHT22;2719;53.624;9.786;2023-11-21T13:01:14;7.70;99.90
5392;DHT22;2719;53.624;9.786;2023-11-21T13:03:46;7.70;99.90
5392;DHT22;2719;53.624;9.786;2023-11-21T13:06:14;7.70;99.90
5392;DHT22;2719;53.624;9.786;2023-11-21T13:08:41;7.80;99.90
5392;DHT22;2719;53.624;9.786;2023-11-21T13:11:08;7.80;99.90
5392;DHT22;2719;53.624;9.786;2023-11-21T13:13:36;7.70;99.90
5392;DHT22;2719;53.624;9.786;2023-11-21T13:16:07;7.80;99.90
5392;DHT22;2719;53.624;9.786;2023-11-21T13:18:36;7.70;99.90
5392;DHT22;2719;53.624;9.786;2023-11-21T13:21:06;7.70;99.90
5392;DHT22;2719;53.624;9.786;2023-11-21T13:23:37;7.60;99.90
5392;DHT22;2719;53.624;9.786;2023-11-21T13:26:04;7.60;99.90
5392;DHT22;2719;53.624;9.786;2023-11-21T13:28:31;7.60;99.90
5392;DHT22;2719;53.624;9.786;2023-11-21T13:30:58;7.60;99.90
5392;DHT22;2719;53.624;9.786;2023-11-21T13:33:28;7.60;99.90
5392;DHT22;2719;53.624;9.786;2023-11-21T13:35:57;7.60;99.90
5392;DHT22;2719;53.624;9.786;2023-11-21T13:38:24;7.60;99.90
5392;DHT22;2719;53.624;9.786;2023-11-21T13:40:57;7.60;99.90
5392;DHT22;2719;53.624;9.786;2023-11-21T13:43:25;7.50;99.90
5392;DHT22;2719;53.624;9.786;2023-11-21T13:45:54;7.50;99.90
5392;DHT22;2719;53.624;9.786;2023-11-21T13:48:25;7.50;99.90
5392;DHT22;2719;53.624;9.786;2023-11-21T13:51:01;7.50;99.90
5392;DHT22;2719;53.624;9.786;2023-11-21T13:53:36;7.60;99.90
5392;DHT22;2719;53.624;9.786;2023-11-21T13:56:04;7.50;99.90
5392;DHT22;2719;53.624;9.786;2023-11-21T13:58:31;7.60;99.90
5392;DHT22;2719;53.624;9.786;2023-11-21T14:01:07;7.60;99.90
5392;DHT22;2719;53.624;9.786;2023-11-21T14:03:42;7.60;99.90
5392;DHT22;2719;53.624;9.786;2023-11-21T14:06:18;7.60;99.90
5392;DHT22;2719;53.624;9.786;2023-11-21T14:08:50;7.50;99.90
5392;DHT22;2719;53.624;9.786;2023-11-21T14:11:18;7.50;99.90
5392;DHT22;2719;53.624;9.786;2023-11-21T14:13:47;7.60;99.90
5392;DHT22;2719;53.624;9.786;2023-11-21T14:16:14;7.50;99.90
5392;DHT22;2719;53.624;9.786;2023-11-21T14:18:42;7.50;99.90
5392;DHT22;2719;53.624;9.786;2023-11-21T14:21:19;7.50;99.90
5392;DHT22;2719;53.624;9.786;2023-11-21T14:23:46;7.60;99.90
5392;DHT22;2719;53.624;9.786;2023-11-21T14:26:13;7.50;99.90
5392;DHT22;2719;53.624;9.786;2023-11-21T14:28:42;7.50;99.90
5392;DHT22;2719;53.624;9.786;2023-11-21T14:31:09;7.40;99.90
5392;DHT22;2719;53.624;9.786;2023-11-21T14:33:38;7.30;99.90
5392;DHT22;2719;53.624;9.786;2023-11-21T14:36:06;7.30;99.90
5392;DHT22;2719;53.624;9.786;2023-11-21T14:38:35;7.30;99.90
5392;DHT22;2719;53.624;9.786;2023-11-21T14:41:02;7.10;99.90
5392;DHT22;2719;53.624;9.786;2023-11-21T14:43:29;7.10;99.90
5392;DHT22;2719;53.624;9.786;2023-11-21T14:45:59;7.00;99.90
5392;DHT22;2719;53.624;9.786;2023-11-21T14:48:27;7.00;99.90
5392;DHT22;2719;53.624;9.786;2023-11-21T14:51:07;7.00;99.90
5392;DHT22;2719;53.624;9.786;2023-11-21T14:53:57;7.00;99.90
5392;DHT22;2719;53.624;9.786;2023-11-21T14:56:31;7.00;99.90
5392;DHT22;2719;53.624;9.786;2023-11-21T14:59:00;7.10;99.90
5392;DHT22;2719;53.624;9.786;2023-11-21T15:01:31;7.10;99.90
5392;DHT22;2719;53.624;9.786;2023-11-21T15:04:11;7.10;99.90
5392;DHT22;2719;53.624;9.786;2023-11-21T15:06:46;7.10;99.90
5392;DHT22;2719;53.624;9.786;2023-11-21T15:09:15;7.10;99.90
5392;DHT22;2719;53.624;9.786;2023-11-21T15:12:02;7.10;99.90
5392;DHT22;2719;53.624;9.786;2023-11-21T15:14:39;7.10;99.90
5392;DHT22;2719;53.624;9.786;2023-11-21T15:17:05;7.10;99.90
5392;DHT22;2719;53.624;9.786;2023-11-21T15:19:33;7.20;99.90
5392;DHT22;2719;53.624;9.786;2023-11-21T15:22:01;7.20;99.90
5392;DHT22;2719;53.624;9.786;2023-11-21T15:24:29;7.20;99.90
5392;DHT22;2719;53.624;9.786;2023-11-21T15:26:56;7.20;99.90
5392;DHT22;2719;53.624;9.786;2023-11-21T15:29:22;7.30;99.90
5392;DHT22;2719;53.624;9.786;2023-11-21T15:31:51;7.40;99.90
5392;DHT22;2719;53.624;9.786;2023-11-21T15:34:21;7.30;99.90
5392;DHT22;2719;53.624;9.786;2023-11-21T15:36:49;7.30;99.90
5392;DHT22;2719;53.624;9.786;2023-11-21T15:39:18;7.40;99.90
5392;DHT22;2719;53.624;9.786;2023-11-21T15:41:48;7.40;99.90
5392;DHT22;2719;53.624;9.786;2023-11-21T15:44:15;7.30;99.90
5392;DHT22;2719;53.624;9.786;2023-11-21T15:46:41;7.40;99.90
5392;DHT22;2719;53.624;9.786;2023-11-21T15:49:08;7.30;99.90
5392;DHT22;2719;53.624;9.786;2023-11-21T15:51:39;7.30;99.90
5392;DHT22;2719;53.624;9.786;2023-11-21T15:54:06;7.30;99.90
5392;DHT22;2719;53.624;9.786;2023-11-21T15:56:34;7.30;99.90
5392;DHT22;2719;53.624;9.786;2023-11-21T15:59:02;7.30;99.90
5392;DHT22;2719;53.624;9.786;2023-11-21T16:01:30;7.40;99.90
5392;DHT22;2719;53.624;9.786;2023-11-21T16:03:57;7.40;99.90
5392;DHT22;2719;53.624;9.786;2023-11-21T16:06:26;7.30;99.90
5392;DHT22;2719;53.624;9.786;2023-11-21T16:08:54;7.30;99.90
5392;DHT22;2719;53.624;9.786;2023-11-21T16:11:21;7.20;99.90
5392;DHT22;2719;53.624;9.786;2023-11-21T16:13:48;7.20;99.90
5392;DHT22;2719;53.624;9.786;2023-11-21T16:16:20;7.20;99.90
5392;DHT22;2719;53.624;9.786;2023-11-21T16:18:47;7.30;99.90
5392;DHT22;2719;53.624;9.786;2023-11-21T16:21:13;7.40;99.90
5392;DHT22;2719;53.624;9.786;2023-11-21T16:23:40;7.40;99.90
5392;DHT22;2719;53.624;9.786;2023-11-21T16:26:07;7.40;99.90
5392;DHT22;2719;53.624;9.786;2023-11-21T16:28:34;7.40;99.90
5392;DHT22;2719;53.624;9.786;2023-11-21T16:31:00;7.20;99.90
5392;DHT22;2719;53.624;9.786;2023-11-21T16:33:28;7.20;99.90
5392;DHT22;2719;53.624;9.786;2023-11-21T16:35:55;7.20;99.90
5392;DHT22;2719;53.624;9.786;2023-11-21T16:38:22;7.20;99.90
5392;DHT22;2719;53.624;9.786;2023-11-21T16:40:48;7.20;99.90
5392;DHT22;2719;53.624;9.786;2023-11-21T16:43:15;7.30;99.90
5392;DHT22;2719;53.624;9.786;2023-11-21T16:45:42;7.20;99.90